sensor_id;sensor_type;location;lat;lon;timestamp;pressure;altitude;pressure_sealevel;temperature;humidity
57847;BME280;43675;50.030;21.952;2024-01-15T00:00:42;97034.79;;;-0.26;72.01
57847;BME280;43675;50.030;21.952;2024-01-15T00:03:34;97026.33;;;-0.25;71.94
57847;BME280;43675;50.030;21.952;2024-01-15T00:06:24;97020.27;;;-0.34;71.90
57847;BME280;43675;50.030;21.952;2024-01-15T00:09:13;97018.71;;;-0.42;72.16
57847;BME280;43675;50.030;21.952;2024-01-15T00:11:50;97017.15;;;-0.47;72.20
57847;BME280;43675;50.030;21.952;2024-01-15T00:14:16;97013.73;;;-0.49;72.51
57847;BME280;43675;50.030;21.952;2024-01-15T00:16:43;97008.77;;;-0.40;72.28
57847;BME280;43675;50.030;21.952;2024-01-15T00:19:09;97005.30;;;-0.31;72.06
57847;BME280;43675;50.030;21.952;2024-01-15T00:21:36;97005.58;;;-0.23;72.02
57847;BME280;43675;50.030;21.952;2024-01-15T00:24:03;96999.11;;;-0.18;71.71
57847;BME280;43675;50.030;21.952;2024-01-15T00:26:30;96995.85;;;-0.14;71.70
57847;BME280;43675;50.030;21.952;2024-01-15T00:28:56;96992.11;;;-0.11;71.46
57847;BME280;43675;50.030;21.952;2024-01-15T00:31:23;96990.47;;;-0.09;71.44
57847;BME280;43675;50.030;21.952;2024-01-15T00:33:49;96983.10;;;-0.06;71.23
57847;BME280;43675;50.030;21.952;2024-01-15T00:36:16;96982.48;;;-0.04;71.17
57847;BME280;43675;50.030;21.952;2024-01-15T00:38:43;96978.96;;;-0.03;71.19
57847;BME280;43675;50.030;21.952;2024-01-15T00:41:10;96976.46;;;-0.01;71.04
57847;BME280;43675;50.030;21.952;2024-01-15T00:43:37;96974.16;;;0.00;70.85
57847;BME280;43675;50.030;21.952;2024-01-15T00:46:04;96969.59;;;0.02;70.78
57847;BME280;43675;50.030;21.952;2024-01-15T00:48:31;96970.12;;;0.02;70.84
57847;BME280;43675;50.030;21.952;2024-01-15T00:50:58;96969.44;;;0.04;70.69
57847;BME280;43675;50.030;21.952;2024-01-15T00:53:31;96968.19;;;0.04;70.71
57847;BME280;43675;50.030;21.952;2024-01-15T00:55:58;96971.32;;;0.05;70.60
57847;BME280;43675;50.030;21.952;2024-01-15T00:58:25;96965.71;;;0.05;70.62
57847;BME280;43675;50.030;21.952;2024-01-15T01:00:55;96967.06;;;0.06;70.51
57847;BME280;43675;50.030;21.952;2024-01-15T01:03:22;96965.07;;;-0.04;70.56
57847;BME280;43675;50.030;21.952;2024-01-15T01:05:49;96964.46;;;-0.05;70.62
57847;BME280;43675;50.030;21.952;2024-01-15T01:08:15;96960.39;;;-0.02;70.45
57847;BME280;43675;50.030;21.952;2024-01-15T01:10:42;96963.42;;;0.02;70.41
57847;BME280;43675;50.030;21.952;2024-01-15T01:13:09;96953.95;;;0.05;70.27
57847;BME280;43675;50.030;21.952;2024-01-15T01:15:36;96954.92;;;0.06;70.21
57847;BME280;43675;50.030;21.952;2024-01-15T01:18:03;96952.87;;;0.07;70.17
57847;BME280;43675;50.030;21.952;2024-01-15T01:20:30;96944.32;;;0.07;70.03
57847;BME280;43675;50.030;21.952;2024-01-15T01:22:56;96942.47;;;0.08;70.01
57847;BME280;43675;50.030;21.952;2024-01-15T01:25:29;96932.98;;;0.08;69.99
57847;BME280;43675;50.030;21.952;2024-01-15T01:27:55;96921.33;;;0.10;70.03
57847;BME280;43675;50.030;21.952;2024-01-15T01:30:22;96915.23;;;0.09;70.03
57847;BME280;43675;50.030;21.952;2024-01-15T01:32:48;96907.80;;;0.10;69.83
57847;BME280;43675;50.030;21.952;2024-01-15T01:35:27;96903.06;;;0.10;69.91
57847;BME280;43675;50.030;21.952;2024-01-15T01:38:03;96899.48;;;-0.01;69.99
57847;BME280;43675;50.030;21.952;2024-01-15T01:40:29;96901.87;;;-0.15;70.35
57847;BME280;43675;50.030;21.952;2024-01-15T01:42:56;96903.09;;;-0.12;70.33
57847;BME280;43675;50.030;21.952;2024-01-15T01:45:23;96900.79;;;-0.06;70.30
57847;BME280;43675;50.030;21.952;2024-01-15T01:47:56;96899.64;;;-0.03;70.17
57847;BME280;43675;50.030;21.952;2024-01-15T01:50:23;96895.18;;;0.01;70.09
57847;BME280;43675;50.030;21.952;2024-01-15T01:52:52;96891.54;;;0.04;70.03
57847;BME280;43675;50.030;21.952;2024-01-15T01:55:20;96886.10;;;0.05;69.93
57847;BME280;43675;50.030;21.952;2024-01-15T01:57:48;96884.02;;;0.07;69.73
57847;BME280;43675;50.030;21.952;2024-01-15T02:00:15;96884.91;;;0.08;69.77
57847;BME280;43675;50.030;21.952;2024-01-15T02:02:42;96879.77;;;0.10;69.64
57847;BME280;43675;50.030;21.952;2024-01-15T02:05:09;96875.38;;;0.12;69.55
57847;BME280;43675;50.030;21.952;2024-01-15T02:07:36;96873.30;;;0.13;69.45
57847;BME280;43675;50.030;21.952;2024-01-15T02:10:03;96873.88;;;0.14;69.48
57847;BME280;43675;50.030;21.952;2024-01-15T02:12:29;96871.14;;;0.16;69.30
57847;BME280;43675;50.030;21.952;2024-01-15T02:14:56;96871.09;;;0.18;69.25
57847;BME280;43675;50.030;21.952;2024-01-15T02:17:23;96866.35;;;0.17;69.15
57847;BME280;43675;50.030;21.952;2024-01-15T02:19:56;96869.31;;;0.18;69.20
57847;BME280;43675;50.030;21.952;2024-01-15T02:22:22;96870.05;;;0.19;69.06
57847;BME280;43675;50.030;21.952;2024-01-15T02:24:49;96870.51;;;0.20;69.10
57847;BME280;43675;50.030;21.952;2024-01-15T02:27:16;96861.63;;;0.20;69.09
57847;BME280;43675;50.030;21.952;2024-01-15T02:29:43;96863.34;;;0.20;68.96
57847;BME280;43675;50.030;21.952;2024-01-15T02:32:10;96862.83;;;0.20;68.80
57847;BME280;43675;50.030;21.952;2024-01-15T02:35:06;96857.90;;;0.16;69.01
57847;BME280;43675;50.030;21.952;2024-01-15T02:37:43;96856.15;;;-0.04;69.10
57847;BME280;43675;50.030;21.952;2024-01-15T02:40:10;96847.80;;;-0.12;69.35
57847;BME280;43675;50.030;21.952;2024-01-15T02:42:40;96845.24;;;-0.09;69.38
57847;BME280;43675;50.030;21.952;2024-01-15T02:45:34;96837.29;;;-0.15;69.50
57847;BME280;43675;50.030;21.952;2024-01-15T02:48:18;96832.70;;;-0.25;69.83
57847;BME280;43675;50.030;21.952;2024-01-15T02:51:12;96824.78;;;-0.32;69.79
57847;BME280;43675;50.030;21.952;2024-01-15T02:53:58;96823.85;;;-0.37;69.95
57847;BME280;43675;50.030;21.952;2024-01-15T02:56:25;96818.42;;;-0.37;70.11
57847;BME280;43675;50.030;21.952;2024-01-15T02:58:51;96817.18;;;-0.26;69.92
57847;BME280;43675;50.030;21.952;2024-01-15T03:01:19;96811.20;;;-0.15;69.75
57847;BME280;43675;50.030;21.952;2024-01-15T03:03:45;96805.52;;;-0.08;69.64
57847;BME280;43675;50.030;21.952;2024-01-15T03:06:12;96801.11;;;-0.03;69.51
57847;BME280;43675;50.030;21.952;2024-01-15T03:08:38;96803.77;;;0.01;69.31
57847;BME280;43675;50.030;21.952;2024-01-15T03:11:05;96807.06;;;0.04;69.27
57847;BME280;43675;50.030;21.952;2024-01-15T03:13:35;96802.56;;;0.05;69.11
57847;BME280;43675;50.030;21.952;2024-01-15T03:16:03;96797.27;;;0.07;69.04
57847;BME280;43675;50.030;21.952;2024-01-15T03:18:29;96793.33;;;0.07;69.03
57847;BME280;43675;50.030;21.952;2024-01-15T03:21:02;96790.58;;;0.08;69.00
57847;BME280;43675;50.030;21.952;2024-01-15T03:23:29;96793.91;;;0.08;68.83
57847;BME280;43675;50.030;21.952;2024-01-15T03:25:56;96788.98;;;0.08;68.65
57847;BME280;43675;50.030;21.952;2024-01-15T03:28:29;96788.30;;;0.08;68.65
57847;BME280;43675;50.030;21.952;2024-01-15T03:31:08;96791.27;;;0.08;68.54
57847;BME280;43675;50.030;21.952;2024-01-15T03:33:40;96787.65;;;0.00;68.63
57847;BME280;43675;50.030;21.952;2024-01-15T03:36:21;96778.98;;;-0.03;68.65
57847;BME280;43675;50.030;21.952;2024-01-15T03:42:00;96774.77;;;-0.21;68.81
57847;BME280;43675;50.030;21.952;2024-01-15T03:44:26;96773.16;;;-0.14;68.80
57847;BME280;43675;50.030;21.952;2024-01-15T03:46:53;96770.69;;;-0.09;68.64
57847;BME280;43675;50.030;21.952;2024-01-15T03:49:20;96778.19;;;-0.01;68.36
57847;BME280;43675;50.030;21.952;2024-01-15T03:51:46;96773.84;;;0.04;68.32
57847;BME280;43675;50.030;21.952;2024-01-15T03:54:13;96772.92;;;0.07;68.17
57847;BME280;43675;50.030;21.952;2024-01-15T03:56:39;96770.05;;;0.10;68.16
57847;BME280;43675;50.030;21.952;2024-01-15T03:59:06;96767.48;;;0.13;68.01
57847;BME280;43675;50.030;21.952;2024-01-15T04:01:33;96763.74;;;0.14;67.89
57847;BME280;43675;50.030;21.952;2024-01-15T04:03:59;96763.55;;;0.16;67.90
57847;BME280;43675;50.030;21.952;2024-01-15T04:06:26;96761.69;;;0.18;67.78
57847;BME280;43675;50.030;21.952;2024-01-15T04:08:52;96762.76;;;0.19;67.73
57847;BME280;43675;50.030;21.952;2024-01-15T04:11:19;96761.79;;;0.21;67.73
57847;BME280;43675;50.030;21.952;2024-01-15T04:13:46;96756.32;;;0.23;67.57
57847;BME280;43675;50.030;21.952;2024-01-15T04:16:16;96757.11;;;0.19;67.37
57847;BME280;43675;50.030;21.952;2024-01-15T04:18:54;96750.19;;;0.05;67.60
57847;BME280;43675;50.030;21.952;2024-01-15T04:21:20;96749.02;;;-0.07;67.92
57847;BME280;43675;50.030;21.952;2024-01-15T04:23:47;96748.73;;;-0.03;67.79
57847;BME280;43675;50.030;21.952;2024-01-15T04:26:20;96749.36;;;0.03;67.79
57847;BME280;43675;50.030;21.952;2024-01-15T04:28:47;96749.18;;;0.07;67.59
57847;BME280;43675;50.030;21.952;2024-01-15T04:31:24;96749.27;;;0.09;67.56
57847;BME280;43675;50.030;21.952;2024-01-15T04:33:51;96744.64;;;0.09;67.63
57847;BME280;43675;50.030;21.952;2024-01-15T04:36:17;96740.91;;;0.10;67.57
57847;BME280;43675;50.030;21.952;2024-01-15T04:38:44;96741.80;;;0.10;67.43
57847;BME280;43675;50.030;21.952;2024-01-15T04:41:25;96742.42;;;0.05;67.51
57847;BME280;43675;50.030;21.952;2024-01-15T04:44:33;96745.88;;;-0.13;67.66
57847;BME280;43675;50.030;21.952;2024-01-15T04:46:58;96739.85;;;-0.24;68.16
57847;BME280;43675;50.030;21.952;2024-01-15T04:49:25;96743.29;;;-0.17;68.24
57847;BME280;43675;50.030;21.952;2024-01-15T04:51:52;96743.73;;;-0.11;68.11
57847;BME280;43675;50.030;21.952;2024-01-15T04:54:18;96739.77;;;-0.08;68.08
57847;BME280;43675;50.030;21.952;2024-01-15T04:56:45;96736.92;;;-0.05;68.07
57847;BME280;43675;50.030;21.952;2024-01-15T04:59:13;96735.82;;;-0.03;67.93
57847;BME280;43675;50.030;21.952;2024-01-15T05:01:40;96730.76;;;-0.02;68.00
57847;BME280;43675;50.030;21.952;2024-01-15T05:04:06;96722.54;;;-0.00;68.04
57847;BME280;43675;50.030;21.952;2024-01-15T05:06:33;96717.33;;;-0.01;68.02
57847;BME280;43675;50.030;21.952;2024-01-15T05:09:03;96724.79;;;-0.02;68.25
57847;BME280;43675;50.030;21.952;2024-01-15T05:11:38;96725.91;;;-0.08;68.22
57847;BME280;43675;50.030;21.952;2024-01-15T05:17:03;96722.55;;;-0.33;68.90
57847;BME280;43675;50.030;21.952;2024-01-15T05:19:29;96722.02;;;-0.25;68.69
57847;BME280;43675;50.030;21.952;2024-01-15T05:22:02;96719.48;;;-0.18;68.60
57847;BME280;43675;50.030;21.952;2024-01-15T05:30:29;96719.33;;;-0.36;68.77
57847;BME280;43675;50.030;21.952;2024-01-15T05:33:28;96713.66;;;-0.42;68.83
57847;BME280;43675;50.030;21.952;2024-01-15T05:36:04;96709.63;;;-0.52;69.32
57847;BME280;43675;50.030;21.952;2024-01-15T05:38:53;96703.36;;;-0.57;69.22
57847;BME280;43675;50.030;21.952;2024-01-15T05:47:40;96698.92;;;-0.63;69.63
57847;BME280;43675;50.030;21.952;2024-01-15T05:50:36;96688.45;;;-0.66;69.82
57847;BME280;43675;50.030;21.952;2024-01-15T06:01:36;96678.52;;;-0.72;70.19
57847;BME280;43675;50.030;21.952;2024-01-15T06:04:02;96675.91;;;-0.63;70.02
57847;BME280;43675;50.030;21.952;2024-01-15T06:06:53;96679.52;;;-0.54;69.88
57847;BME280;43675;50.030;21.952;2024-01-15T06:10:01;96675.82;;;-0.60;69.91
57847;BME280;43675;50.030;21.952;2024-01-15T06:12:30;96667.87;;;-0.67;70.26
57847;BME280;43675;50.030;21.952;2024-01-15T06:15:16;96668.21;;;-0.62;70.22
57847;BME280;43675;50.030;21.952;2024-01-15T06:17:50;96662.98;;;-0.69;70.30
57847;BME280;43675;50.030;21.952;2024-01-15T06:20:26;96661.49;;;-0.73;70.23
57847;BME280;43675;50.030;21.952;2024-01-15T06:23:12;96658.92;;;-0.76;70.63
57847;BME280;43675;50.030;21.952;2024-01-15T06:26:07;96661.98;;;-0.78;70.53
57847;BME280;43675;50.030;21.952;2024-01-15T06:28:34;96660.21;;;-0.76;70.70
57847;BME280;43675;50.030;21.952;2024-01-15T06:31:01;96661.73;;;-0.65;70.62
57847;BME280;43675;50.030;21.952;2024-01-15T06:33:27;96656.48;;;-0.54;70.30
57847;BME280;43675;50.030;21.952;2024-01-15T06:35:54;96652.59;;;-0.45;70.21
57847;BME280;43675;50.030;21.952;2024-01-15T06:38:20;96652.27;;;-0.39;70.07
57847;BME280;43675;50.030;21.952;2024-01-15T06:40:47;96651.52;;;-0.32;70.00
57847;BME280;43675;50.030;21.952;2024-01-15T06:43:14;96651.14;;;-0.26;69.81
57847;BME280;43675;50.030;21.952;2024-01-15T06:45:41;96645.38;;;-0.20;69.62
57847;BME280;43675;50.030;21.952;2024-01-15T06:48:08;96646.90;;;-0.14;69.55
57847;BME280;43675;50.030;21.952;2024-01-15T06:50:34;96640.30;;;-0.09;69.34
57847;BME280;43675;50.030;21.952;2024-01-15T06:53:01;96635.49;;;-0.04;69.20
57847;BME280;43675;50.030;21.952;2024-01-15T06:55:28;96636.20;;;-0.02;69.02
57847;BME280;43675;50.030;21.952;2024-01-15T06:58:18;96637.25;;;-0.10;68.96
57847;BME280;43675;50.030;21.952;2024-01-15T07:01:14;96637.20;;;-0.22;69.17
57847;BME280;43675;50.030;21.952;2024-01-15T07:03:43;96645.50;;;-0.27;69.28
57847;BME280;43675;50.030;21.952;2024-01-15T07:06:34;96642.89;;;-0.21;69.17
57847;BME280;43675;50.030;21.952;2024-01-15T07:15:18;96644.59;;;-0.22;69.07
57847;BME280;43675;50.030;21.952;2024-01-15T07:18:11;96641.63;;;-0.22;69.23
57847;BME280;43675;50.030;21.952;2024-01-15T07:21:08;96647.52;;;-0.20;69.14
57847;BME280;43675;50.030;21.952;2024-01-15T07:26:38;96643.45;;;-0.13;68.78
57847;BME280;43675;50.030;21.952;2024-01-15T07:29:07;96643.88;;;-0.08;68.81
57847;BME280;43675;50.030;21.952;2024-01-15T07:31:34;96641.98;;;0.07;68.60
57847;BME280;43675;50.030;21.952;2024-01-15T07:34:01;96647.52;;;0.22;68.27
57847;BME280;43675;50.030;21.952;2024-01-15T07:36:28;96646.08;;;0.35;67.86
57847;BME280;43675;50.030;21.952;2024-01-15T07:38:54;96644.39;;;0.47;67.55
57847;BME280;43675;50.030;21.952;2024-01-15T07:41:27;96641.77;;;0.58;67.19
57847;BME280;43675;50.030;21.952;2024-01-15T07:44:14;96643.55;;;0.58;67.06
57847;BME280;43675;50.030;21.952;2024-01-15T07:46:57;96638.08;;;0.55;67.17
57847;BME280;43675;50.030;21.952;2024-01-15T07:49:29;96636.90;;;0.57;67.03
57847;BME280;43675;50.030;21.952;2024-01-15T07:52:01;96638.29;;;0.59;66.78
57847;BME280;43675;50.030;21.952;2024-01-15T07:54:48;96639.09;;;0.59;66.97
57847;BME280;43675;50.030;21.952;2024-01-15T07:57:25;96641.46;;;0.64;66.73
57847;BME280;43675;50.030;21.952;2024-01-15T07:59:52;96641.59;;;0.77;66.37
57847;BME280;43675;50.030;21.952;2024-01-15T08:02:28;96641.43;;;0.89;65.87
57847;BME280;43675;50.030;21.952;2024-01-15T08:04:54;96643.09;;;1.02;65.53
57847;BME280;43675;50.030;21.952;2024-01-15T08:07:29;96640.82;;;1.10;65.35
57847;BME280;43675;50.030;21.952;2024-01-15T08:10:16;96644.46;;;1.07;65.10
57847;BME280;43675;50.030;21.952;2024-01-15T08:13:06;96645.54;;;1.06;65.28
57847;BME280;43675;50.030;21.952;2024-01-15T08:15:33;96647.35;;;1.11;65.23
57847;BME280;43675;50.030;21.952;2024-01-15T08:18:06;96643.95;;;1.29;64.61
57847;BME280;43675;50.030;21.952;2024-01-15T08:20:33;96640.39;;;1.48;64.05
57847;BME280;43675;50.030;21.952;2024-01-15T08:23:00;96640.60;;;1.62;63.76
57847;BME280;43675;50.030;21.952;2024-01-15T08:25:26;96644.80;;;1.75;63.20
57847;BME280;43675;50.030;21.952;2024-01-15T08:27:53;96640.23;;;1.85;63.07
57847;BME280;43675;50.030;21.952;2024-01-15T08:30:23;96638.21;;;1.83;62.72
57847;BME280;43675;50.030;21.952;2024-01-15T08:33:00;96642.34;;;1.77;62.75
57847;BME280;43675;50.030;21.952;2024-01-15T08:35:29;96640.20;;;1.75;62.81
57847;BME280;43675;50.030;21.952;2024-01-15T08:37:55;96645.73;;;1.80;62.36
57847;BME280;43675;50.030;21.952;2024-01-15T08:40:40;96637.63;;;1.80;62.41
57847;BME280;43675;50.030;21.952;2024-01-15T08:43:07;96642.90;;;1.82;62.46
57847;BME280;43675;50.030;21.952;2024-01-15T08:45:33;96643.28;;;1.99;62.38
57847;BME280;43675;50.030;21.952;2024-01-15T08:48:00;96643.98;;;2.14;61.80
57847;BME280;43675;50.030;21.952;2024-01-15T08:50:26;96641.21;;;2.25;61.41
57847;BME280;43675;50.030;21.952;2024-01-15T08:52:53;96646.32;;;2.38;61.34
57847;BME280;43675;50.030;21.952;2024-01-15T08:55:20;96644.07;;;2.37;61.03
57847;BME280;43675;50.030;21.952;2024-01-15T08:57:56;96638.66;;;2.29;60.90
57847;BME280;43675;50.030;21.952;2024-01-15T09:00:22;96637.88;;;2.25;60.87
57847;BME280;43675;50.030;21.952;2024-01-15T09:02:56;96638.28;;;2.38;60.57
57847;BME280;43675;50.030;21.952;2024-01-15T09:05:23;96637.42;;;2.47;60.47
57847;BME280;43675;50.030;21.952;2024-01-15T09:07:49;96631.45;;;2.58;60.08
57847;BME280;43675;50.030;21.952;2024-01-15T09:10:19;96634.27;;;2.62;59.97
57847;BME280;43675;50.030;21.952;2024-01-15T09:12:49;96632.48;;;2.56;60.13
57847;BME280;43675;50.030;21.952;2024-01-15T09:15:15;96628.95;;;2.53;60.05
57847;BME280;43675;50.030;21.952;2024-01-15T09:17:42;96636.88;;;2.62;59.52
57847;BME280;43675;50.030;21.952;2024-01-15T09:20:10;96638.25;;;2.68;59.40
57847;BME280;43675;50.030;21.952;2024-01-15T09:22:39;96637.25;;;2.66;59.55
57847;BME280;43675;50.030;21.952;2024-01-15T09:25:06;96638.84;;;2.78;59.20
57847;BME280;43675;50.030;21.952;2024-01-15T09:27:33;96627.98;;;2.93;58.90
57847;BME280;43675;50.030;21.952;2024-01-15T09:29:59;96629.35;;;3.09;58.44
57847;BME280;43675;50.030;21.952;2024-01-15T09:32:35;96620.73;;;3.16;58.31
57847;BME280;43675;50.030;21.952;2024-01-15T09:35:03;96625.39;;;3.19;58.34
57847;BME280;43675;50.030;21.952;2024-01-15T09:37:29;96624.52;;;3.34;57.89
57847;BME280;43675;50.030;21.952;2024-01-15T09:39:56;96621.26;;;3.46;57.64
57847;BME280;43675;50.030;21.952;2024-01-15T09:42:24;96624.83;;;3.51;57.60
57847;BME280;43675;50.030;21.952;2024-01-15T09:44:52;96630.38;;;3.52;57.30
57847;BME280;43675;50.030;21.952;2024-01-15T09:47:34;96622.50;;;3.43;57.18
57847;BME280;43675;50.030;21.952;2024-01-15T09:50:02;96624.18;;;3.39;57.55
57847;BME280;43675;50.030;21.952;2024-01-15T09:52:30;96625.79;;;3.53;57.28
57847;BME280;43675;50.030;21.952;2024-01-15T09:54:58;96623.59;;;3.68;57.01
57847;BME280;43675;50.030;21.952;2024-01-15T09:57:27;96626.64;;;3.84;56.66
57847;BME280;43675;50.030;21.952;2024-01-15T09:59:54;96627.84;;;3.89;56.22
57847;BME280;43675;50.030;21.952;2024-01-15T10:02:31;96627.70;;;3.95;56.32
57847;BME280;43675;50.030;21.952;2024-01-15T10:04:57;96622.35;;;4.07;56.02
57847;BME280;43675;50.030;21.952;2024-01-15T10:07:25;96619.64;;;4.06;55.45
57847;BME280;43675;50.030;21.952;2024-01-15T10:09:52;96610.28;;;3.83;55.31
57847;BME280;43675;50.030;21.952;2024-01-15T10:12:22;96611.08;;;3.62;55.43
57847;BME280;43675;50.030;21.952;2024-01-15T10:14:56;96612.66;;;3.48;56.06
57847;BME280;43675;50.030;21.952;2024-01-15T10:17:26;96607.14;;;3.50;56.34
57847;BME280;43675;50.030;21.952;2024-01-15T10:20:01;96607.47;;;3.71;55.87
57847;BME280;43675;50.030;21.952;2024-01-15T10:25:18;96600.56;;;4.46;55.40
57847;BME280;43675;50.030;21.952;2024-01-15T10:27:59;96597.48;;;4.86;54.49
57847;BME280;43675;50.030;21.952;2024-01-15T10:30:26;96597.20;;;5.28;53.70
57847;BME280;43675;50.030;21.952;2024-01-15T10:33:00;96590.77;;;5.72;52.85
57847;BME280;43675;50.030;21.952;2024-01-15T10:35:28;96586.79;;;6.11;51.92
57847;BME280;43675;50.030;21.952;2024-01-15T10:37:55;96584.70;;;6.51;52.69
57847;BME280;43675;50.030;21.952;2024-01-15T10:40:29;96591.15;;;6.75;51.13
57847;BME280;43675;50.030;21.952;2024-01-15T10:42:56;96589.27;;;6.90;50.04
57847;BME280;43675;50.030;21.952;2024-01-15T10:45:22;96594.27;;;7.01;49.71
57847;BME280;43675;50.030;21.952;2024-01-15T10:47:49;96592.45;;;7.09;49.32
57847;BME280;43675;50.030;21.952;2024-01-15T10:50:16;96597.84;;;7.02;49.32
57847;BME280;43675;50.030;21.952;2024-01-15T10:52:43;96595.09;;;6.75;49.11
57847;BME280;43675;50.030;21.952;2024-01-15T10:55:10;96601.08;;;6.41;49.32
57847;BME280;43675;50.030;21.952;2024-01-15T10:57:37;96599.55;;;6.09;49.83
57847;BME280;43675;50.030;21.952;2024-01-15T11:00:05;96599.84;;;5.84;50.23
57847;BME280;43675;50.030;21.952;2024-01-15T11:02:35;96600.98;;;5.70;50.42
57847;BME280;43675;50.030;21.952;2024-01-15T11:05:08;96602.98;;;5.53;50.85
57847;BME280;43675;50.030;21.952;2024-01-15T11:07:35;96603.39;;;5.23;51.33
57847;BME280;43675;50.030;21.952;2024-01-15T11:10:03;96609.31;;;4.91;51.48
57847;BME280;43675;50.030;21.952;2024-01-15T11:12:31;96605.77;;;4.64;51.99
57847;BME280;43675;50.030;21.952;2024-01-15T11:15:02;96604.53;;;4.53;52.21
57847;BME280;43675;50.030;21.952;2024-01-15T11:17:58;96599.37;;;4.49;52.86
57847;BME280;43675;50.030;21.952;2024-01-15T11:20:25;96597.21;;;4.46;52.95
57847;BME280;43675;50.030;21.952;2024-01-15T11:22:51;96594.94;;;4.44;52.74
57847;BME280;43675;50.030;21.952;2024-01-15T11:25:19;96589.64;;;4.44;53.14
57847;BME280;43675;50.030;21.952;2024-01-15T11:27:47;96592.54;;;4.44;53.02
57847;BME280;43675;50.030;21.952;2024-01-15T11:30:14;96598.13;;;4.44;53.00
57847;BME280;43675;50.030;21.952;2024-01-15T11:32:41;96596.29;;;4.44;53.13
57847;BME280;43675;50.030;21.952;2024-01-15T11:35:14;96594.15;;;4.46;53.51
57847;BME280;43675;50.030;21.952;2024-01-15T11:40:40;96590.14;;;4.19;54.23
57847;BME280;43675;50.030;21.952;2024-01-15T11:43:07;96592.71;;;4.10;54.19
57847;BME280;43675;50.030;21.952;2024-01-15T11:45:37;96595.25;;;4.10;54.24
57847;BME280;43675;50.030;21.952;2024-01-15T11:48:24;96596.17;;;4.05;54.43
57847;BME280;43675;50.030;21.952;2024-01-15T11:51:03;96588.56;;;3.87;54.57
57847;BME280;43675;50.030;21.952;2024-01-15T11:53:36;96594.01;;;3.81;54.58
57847;BME280;43675;50.030;21.952;2024-01-15T11:56:06;96591.02;;;3.78;54.48
57847;BME280;43675;50.030;21.952;2024-01-15T11:58:38;96590.53;;;3.81;54.61
57847;BME280;43675;50.030;21.952;2024-01-15T12:01:12;96593.17;;;3.73;54.51
57847;BME280;43675;50.030;21.952;2024-01-15T12:03:41;96597.89;;;3.61;54.71
57847;BME280;43675;50.030;21.952;2024-01-15T12:06:08;96599.33;;;3.52;55.17
57847;BME280;43675;50.030;21.952;2024-01-15T12:08:35;96596.19;;;3.55;55.03
57847;BME280;43675;50.030;21.952;2024-01-15T12:11:28;96598.77;;;3.57;54.92
57847;BME280;43675;50.030;21.952;2024-01-15T12:13:55;96591.05;;;3.43;55.29
57847;BME280;43675;50.030;21.952;2024-01-15T12:16:22;96599.98;;;3.31;55.31
57847;BME280;43675;50.030;21.952;2024-01-15T12:18:58;96601.30;;;3.22;55.80
57847;BME280;43675;50.030;21.952;2024-01-15T12:21:26;96601.23;;;3.15;55.67
57847;BME280;43675;50.030;21.952;2024-01-15T12:23:59;96606.95;;;3.20;55.57
57847;BME280;43675;50.030;21.952;2024-01-15T12:26:26;96613.33;;;3.22;55.23
57847;BME280;43675;50.030;21.952;2024-01-15T12:28:54;96608.56;;;3.22;55.08
57847;BME280;43675;50.030;21.952;2024-01-15T12:31:21;96609.61;;;3.22;55.59
57847;BME280;43675;50.030;21.952;2024-01-15T12:33:47;96605.98;;;3.17;55.29
57847;BME280;43675;50.030;21.952;2024-01-15T12:36:35;96603.89;;;3.03;55.68
57847;BME280;43675;50.030;21.952;2024-01-15T12:39:12;96606.77;;;2.94;56.04
57847;BME280;43675;50.030;21.952;2024-01-15T12:41:41;96607.64;;;3.03;56.30
57847;BME280;43675;50.030;21.952;2024-01-15T12:44:29;96600.57;;;3.07;56.18
57847;BME280;43675;50.030;21.952;2024-01-15T12:46:58;96604.29;;;3.17;56.07
57847;BME280;43675;50.030;21.952;2024-01-15T12:49:48;96600.80;;;3.37;55.71
57847;BME280;43675;50.030;21.952;2024-01-15T12:52:19;96596.30;;;3.60;55.71
57847;BME280;43675;50.030;21.952;2024-01-15T12:54:51;96597.79;;;3.92;54.31
57847;BME280;43675;50.030;21.952;2024-01-15T12:57:18;96595.48;;;4.22;53.25
57847;BME280;43675;50.030;21.952;2024-01-15T12:59:45;96592.16;;;4.45;53.05
57847;BME280;43675;50.030;21.952;2024-01-15T13:02:13;96589.86;;;4.53;52.72
57847;BME280;43675;50.030;21.952;2024-01-15T13:04:39;96596.58;;;4.58;52.64
57847;BME280;43675;50.030;21.952;2024-01-15T13:07:07;96599.48;;;4.74;52.54
57847;BME280;43675;50.030;21.952;2024-01-15T13:09:34;96598.41;;;4.80;52.33
57847;BME280;43675;50.030;21.952;2024-01-15T13:12:02;96600.32;;;4.95;52.14
57847;BME280;43675;50.030;21.952;2024-01-15T13:14:29;96603.48;;;5.05;51.57
57847;BME280;43675;50.030;21.952;2024-01-15T13:16:55;96608.19;;;5.02;51.30
57847;BME280;43675;50.030;21.952;2024-01-15T13:19:22;96613.98;;;4.86;51.41
57847;BME280;43675;50.030;21.952;2024-01-15T13:21:56;96619.21;;;4.62;51.89
57847;BME280;43675;50.030;21.952;2024-01-15T13:24:23;96617.49;;;4.41;52.25
57847;BME280;43675;50.030;21.952;2024-01-15T13:26:59;96624.04;;;4.26;52.50
57847;BME280;43675;50.030;21.952;2024-01-15T13:29:28;96625.48;;;4.15;52.85
57847;BME280;43675;50.030;21.952;2024-01-15T13:32:00;96632.56;;;4.04;52.99
57847;BME280;43675;50.030;21.952;2024-01-15T13:34:33;96637.34;;;3.97;53.56
57847;BME280;43675;50.030;21.952;2024-01-15T13:37:06;96640.72;;;4.01;53.35
57847;BME280;43675;50.030;21.952;2024-01-15T13:39:33;96640.34;;;4.06;53.71
57847;BME280;43675;50.030;21.952;2024-01-15T13:42:00;96630.23;;;4.08;53.74
57847;BME280;43675;50.030;21.952;2024-01-15T13:44:26;96633.35;;;4.06;53.57
57847;BME280;43675;50.030;21.952;2024-01-15T13:46:53;96633.52;;;4.03;53.66
57847;BME280;43675;50.030;21.952;2024-01-15T13:49:25;96637.66;;;3.98;53.65
57847;BME280;43675;50.030;21.952;2024-01-15T13:51:52;96629.55;;;3.93;53.04
57847;BME280;43675;50.030;21.952;2024-01-15T13:54:19;96628.23;;;3.88;52.92
57847;BME280;43675;50.030;21.952;2024-01-15T13:56:45;96622.29;;;3.86;52.92
57847;BME280;43675;50.030;21.952;2024-01-15T13:59:12;96618.77;;;3.83;52.94